< < Back
Terminal Aerodrome Forecast


Current Version              Previous Versions:   1  2  3  4  5  6  7  8  9  

Terminal Aerodrome Forecast

713
FTUS44 KBMX 021100
TAFMGM
TAF
KMGM 021136Z 0212/0312 00000KT P6SM SKC
     FM021500 25005KT P6SM SCT050
     FM030000 00000KT P6SM SCT150=

Latest METAR

313
SAUS80 KWBC 011700 RRQ
MTRMGM
METAR KMGM 021653Z VRB03KT 10SM FEW037 33/22 A3010 RMK AO2 SLP188
T03280217


USA.gov is the U.S. government's official web portal to all federal, state and local government web resources and services.